sensor_id;sensor_type;location;lat;lon;timestamp;temperature;humidity
19586;DHT22;9939;49.246;9.106;2023-07-02T00:01:49;17.20;99.90
19586;DHT22;9939;49.246;9.106;2023-07-02T00:04:16;17.10;99.90
19586;DHT22;9939;49.246;9.106;2023-07-02T00:06:46;17.20;99.90
19586;DHT22;9939;49.246;9.106;2023-07-02T00:09:14;17.10;99.90
19586;DHT22;9939;49.246;9.106;2023-07-02T00:11:41;17.00;99.90
19586;DHT22;9939;49.246;9.106;2023-07-02T00:14:09;17.00;99.90
19586;DHT22;9939;49.246;9.106;2023-07-02T00:16:42;16.90;99.90
19586;DHT22;9939;49.246;9.106;2023-07-02T00:19:09;16.90;99.90
19586;DHT22;9939;49.246;9.106;2023-07-02T00:21:36;16.70;99.90
19586;DHT22;9939;49.246;9.106;2023-07-02T00:24:03;16.70;99.90
19586;DHT22;9939;49.246;9.106;2023-07-02T00:26:30;16.50;99.90
19586;DHT22;9939;49.246;9.106;2023-07-02T00:28:57;16.60;99.90
19586;DHT22;9939;49.246;9.106;2023-07-02T00:31:24;16.50;99.90
19586;DHT22;9939;49.246;9.106;2023-07-02T00:33:51;16.60;99.90
19586;DHT22;9939;49.246;9.106;2023-07-02T00:36:18;16.60;99.90
19586;DHT22;9939;49.246;9.106;2023-07-02T00:38:45;16.60;99.90
19586;DHT22;9939;49.246;9.106;2023-07-02T00:41:13;16.60;99.90
19586;DHT22;9939;49.246;9.106;2023-07-02T00:43:40;16.50;99.90
19586;DHT22;9939;49.246;9.106;2023-07-02T00:46:11;16.50;99.90
19586;DHT22;9939;49.246;9.106;2023-07-02T00:48:39;16.50;99.90
19586;DHT22;9939;49.246;9.106;2023-07-02T00:51:07;16.50;99.90
19586;DHT22;9939;49.246;9.106;2023-07-02T00:53:34;16.50;99.90
19586;DHT22;9939;49.246;9.106;2023-07-02T00:56:01;16.60;99.90
19586;DHT22;9939;49.246;9.106;2023-07-02T00:58:27;16.40;99.90
19586;DHT22;9939;49.246;9.106;2023-07-02T01:00:54;16.50;99.90
19586;DHT22;9939;49.246;9.106;2023-07-02T01:03:23;16.40;99.90
19586;DHT22;9939;49.246;9.106;2023-07-02T01:05:50;16.50;99.90
19586;DHT22;9939;49.246;9.106;2023-07-02T01:08:17;16.60;99.90
19586;DHT22;9939;49.246;9.106;2023-07-02T01:10:44;16.60;99.90
19586;DHT22;9939;49.246;9.106;2023-07-02T01:13:12;16.60;99.90
19586;DHT22;9939;49.246;9.106;2023-07-02T01:15:40;16.80;99.90
19586;DHT22;9939;49.246;9.106;2023-07-02T01:18:08;16.80;99.90
19586;DHT22;9939;49.246;9.106;2023-07-02T01:20:37;16.70;99.90
19586;DHT22;9939;49.246;9.106;2023-07-02T01:23:05;16.80;99.90
19586;DHT22;9939;49.246;9.106;2023-07-02T01:25:31;16.80;99.90
19586;DHT22;9939;49.246;9.106;2023-07-02T01:28:04;16.80;99.90
19586;DHT22;9939;49.246;9.106;2023-07-02T01:30:30;16.90;99.90
19586;DHT22;9939;49.246;9.106;2023-07-02T01:32:57;16.80;99.90
19586;DHT22;9939;49.246;9.106;2023-07-02T01:35:24;17.00;99.90
19586;DHT22;9939;49.246;9.106;2023-07-02T01:37:51;16.90;99.90
19586;DHT22;9939;49.246;9.106;2023-07-02T01:40:18;17.00;99.90
19586;DHT22;9939;49.246;9.106;2023-07-02T01:42:44;16.90;99.90
19586;DHT22;9939;49.246;9.106;2023-07-02T01:45:11;16.90;99.90
19586;DHT22;9939;49.246;9.106;2023-07-02T01:47:38;16.90;99.90
19586;DHT22;9939;49.246;9.106;2023-07-02T01:50:05;17.00;99.90
19586;DHT22;9939;49.246;9.106;2023-07-02T01:52:32;17.00;99.90
19586;DHT22;9939;49.246;9.106;2023-07-02T01:55:01;17.10;99.90
19586;DHT22;9939;49.246;9.106;2023-07-02T01:57:30;17.10;99.90
19586;DHT22;9939;49.246;9.106;2023-07-02T01:59:57;17.00;99.90
19586;DHT22;9939;49.246;9.106;2023-07-02T02:02:24;17.00;99.90
19586;DHT22;9939;49.246;9.106;2023-07-02T02:04:51;17.10;99.90
19586;DHT22;9939;49.246;9.106;2023-07-02T02:07:19;17.10;99.90
19586;DHT22;9939;49.246;9.106;2023-07-02T02:09:46;17.10;99.90
19586;DHT22;9939;49.246;9.106;2023-07-02T02:12:13;17.20;99.90
19586;DHT22;9939;49.246;9.106;2023-07-02T02:14:40;17.10;99.90
19586;DHT22;9939;49.246;9.106;2023-07-02T02:17:07;17.10;99.90
19586;DHT22;9939;49.246;9.106;2023-07-02T02:19:34;17.20;99.90
19586;DHT22;9939;49.246;9.106;2023-07-02T02:22:01;17.10;99.90
19586;DHT22;9939;49.246;9.106;2023-07-02T02:24:28;17.10;99.90
19586;DHT22;9939;49.246;9.106;2023-07-02T02:26:55;17.00;99.90
19586;DHT22;9939;49.246;9.106;2023-07-02T02:29:21;17.10;99.90
19586;DHT22;9939;49.246;9.106;2023-07-02T02:31:48;17.20;99.90
19586;DHT22;9939;49.246;9.106;2023-07-02T02:34:15;17.10;99.90
19586;DHT22;9939;49.246;9.106;2023-07-02T02:36:42;17.10;99.90
19586;DHT22;9939;49.246;9.106;2023-07-02T02:39:10;17.00;99.90
19586;DHT22;9939;49.246;9.106;2023-07-02T02:41:36;17.10;99.90
19586;DHT22;9939;49.246;9.106;2023-07-02T02:44:04;17.10;99.90
19586;DHT22;9939;49.246;9.106;2023-07-02T02:46:31;17.10;99.90
19586;DHT22;9939;49.246;9.106;2023-07-02T02:48:58;17.20;99.90
19586;DHT22;9939;49.246;9.106;2023-07-02T02:51:25;17.20;99.90
19586;DHT22;9939;49.246;9.106;2023-07-02T02:53:52;17.20;99.90
19586;DHT22;9939;49.246;9.106;2023-07-02T02:56:18;17.20;99.90
19586;DHT22;9939;49.246;9.106;2023-07-02T02:58:45;17.20;99.90
19586;DHT22;9939;49.246;9.106;2023-07-02T03:01:12;17.20;99.90
19586;DHT22;9939;49.246;9.106;2023-07-02T03:03:40;17.40;99.90
19586;DHT22;9939;49.246;9.106;2023-07-02T03:06:12;17.30;99.90
19586;DHT22;9939;49.246;9.106;2023-07-02T03:08:39;17.40;99.90
19586;DHT22;9939;49.246;9.106;2023-07-02T03:11:06;17.30;99.90
19586;DHT22;9939;49.246;9.106;2023-07-02T03:13:32;17.40;99.90
19586;DHT22;9939;49.246;9.106;2023-07-02T03:15:59;17.30;99.90
19586;DHT22;9939;49.246;9.106;2023-07-02T03:18:26;17.40;99.90
19586;DHT22;9939;49.246;9.106;2023-07-02T03:20:53;17.30;99.90
19586;DHT22;9939;49.246;9.106;2023-07-02T03:23:19;17.30;99.90
19586;DHT22;9939;49.246;9.106;2023-07-02T03:25:46;17.40;99.90
19586;DHT22;9939;49.246;9.106;2023-07-02T03:28:13;17.40;99.90
19586;DHT22;9939;49.246;9.106;2023-07-02T03:30:39;17.30;99.90
19586;DHT22;9939;49.246;9.106;2023-07-02T03:33:07;17.40;99.90
19586;DHT22;9939;49.246;9.106;2023-07-02T03:35:35;17.40;99.90
19586;DHT22;9939;49.246;9.106;2023-07-02T03:38:02;17.40;99.90
19586;DHT22;9939;49.246;9.106;2023-07-02T03:40:29;17.40;99.90
19586;DHT22;9939;49.246;9.106;2023-07-02T03:42:55;17.40;99.90
19586;DHT22;9939;49.246;9.106;2023-07-02T03:45:22;17.40;99.90
19586;DHT22;9939;49.246;9.106;2023-07-02T03:47:49;17.30;99.90
19586;DHT22;9939;49.246;9.106;2023-07-02T03:50:16;17.20;99.90
19586;DHT22;9939;49.246;9.106;2023-07-02T03:52:43;17.30;99.90
19586;DHT22;9939;49.246;9.106;2023-07-02T03:55:09;17.30;99.90
19586;DHT22;9939;49.246;9.106;2023-07-02T03:57:36;17.30;99.90
19586;DHT22;9939;49.246;9.106;2023-07-02T04:00:03;17.20;99.90
19586;DHT22;9939;49.246;9.106;2023-07-02T04:02:40;17.20;99.90
19586;DHT22;9939;49.246;9.106;2023-07-02T04:05:07;17.20;99.90
19586;DHT22;9939;49.246;9.106;2023-07-02T04:07:34;17.20;99.90
19586;DHT22;9939;49.246;9.106;2023-07-02T04:10:00;17.20;99.90
19586;DHT22;9939;49.246;9.106;2023-07-02T04:12:27;17.10;99.90
19586;DHT22;9939;49.246;9.106;2023-07-02T04:14:54;17.10;99.90
19586;DHT22;9939;49.246;9.106;2023-07-02T04:17:21;17.20;99.90
19586;DHT22;9939;49.246;9.106;2023-07-02T04:19:48;17.20;99.90
19586;DHT22;9939;49.246;9.106;2023-07-02T04:22:15;17.20;99.90
19586;DHT22;9939;49.246;9.106;2023-07-02T04:24:42;17.10;99.90
19586;DHT22;9939;49.246;9.106;2023-07-02T04:27:13;17.00;99.90
19586;DHT22;9939;49.246;9.106;2023-07-02T04:29:59;17.20;99.90
19586;DHT22;9939;49.246;9.106;2023-07-02T04:32:26;17.10;99.90
19586;DHT22;9939;49.246;9.106;2023-07-02T04:34:53;17.10;99.90
19586;DHT22;9939;49.246;9.106;2023-07-02T04:37:20;17.10;99.90
19586;DHT22;9939;49.246;9.106;2023-07-02T04:39:48;17.00;99.90
19586;DHT22;9939;49.246;9.106;2023-07-02T04:42:15;16.90;99.90
19586;DHT22;9939;49.246;9.106;2023-07-02T04:44:42;16.90;99.90
19586;DHT22;9939;49.246;9.106;2023-07-02T04:47:10;16.90;99.90
19586;DHT22;9939;49.246;9.106;2023-07-02T04:49:36;16.80;99.90
19586;DHT22;9939;49.246;9.106;2023-07-02T04:52:03;16.70;99.90
19586;DHT22;9939;49.246;9.106;2023-07-02T04:54:30;16.70;99.90
19586;DHT22;9939;49.246;9.106;2023-07-02T04:56:56;16.70;99.90
19586;DHT22;9939;49.246;9.106;2023-07-02T04:59:25;16.70;99.90
19586;DHT22;9939;49.246;9.106;2023-07-02T05:01:52;16.60;99.90
19586;DHT22;9939;49.246;9.106;2023-07-02T05:04:18;16.70;99.90
19586;DHT22;9939;49.246;9.106;2023-07-02T05:06:45;16.80;99.90
19586;DHT22;9939;49.246;9.106;2023-07-02T05:09:12;16.80;99.90
19586;DHT22;9939;49.246;9.106;2023-07-02T05:11:38;16.80;99.90
19586;DHT22;9939;49.246;9.106;2023-07-02T05:14:05;16.90;99.90
19586;DHT22;9939;49.246;9.106;2023-07-02T05:16:32;17.10;99.90
19586;DHT22;9939;49.246;9.106;2023-07-02T05:18:59;17.10;99.90
19586;DHT22;9939;49.246;9.106;2023-07-02T05:21:25;17.20;99.90
19586;DHT22;9939;49.246;9.106;2023-07-02T05:23:52;17.30;99.90
19586;DHT22;9939;49.246;9.106;2023-07-02T05:26:19;17.40;99.90
19586;DHT22;9939;49.246;9.106;2023-07-02T05:28:46;17.60;99.90
19586;DHT22;9939;49.246;9.106;2023-07-02T05:31:13;17.60;99.90
19586;DHT22;9939;49.246;9.106;2023-07-02T05:33:39;17.70;99.90
19586;DHT22;9939;49.246;9.106;2023-07-02T05:36:06;17.80;99.90
19586;DHT22;9939;49.246;9.106;2023-07-02T05:38:33;17.70;99.90
19586;DHT22;9939;49.246;9.106;2023-07-02T05:40:59;17.70;99.90
19586;DHT22;9939;49.246;9.106;2023-07-02T05:43:26;17.80;99.90
19586;DHT22;9939;49.246;9.106;2023-07-02T05:45:53;18.00;99.90
19586;DHT22;9939;49.246;9.106;2023-07-02T05:48:20;18.10;99.90
19586;DHT22;9939;49.246;9.106;2023-07-02T05:50:46;18.30;99.90
19586;DHT22;9939;49.246;9.106;2023-07-02T05:53:13;18.10;99.90
19586;DHT22;9939;49.246;9.106;2023-07-02T05:55:41;18.10;99.90
19586;DHT22;9939;49.246;9.106;2023-07-02T05:58:08;17.90;99.90
19586;DHT22;9939;49.246;9.106;2023-07-02T06:00:35;17.90;99.90
19586;DHT22;9939;49.246;9.106;2023-07-02T06:03:02;18.00;99.90
19586;DHT22;9939;49.246;9.106;2023-07-02T06:05:29;18.30;99.90
19586;DHT22;9939;49.246;9.106;2023-07-02T06:07:58;18.30;99.90
19586;DHT22;9939;49.246;9.106;2023-07-02T06:10:25;18.50;99.90
19586;DHT22;9939;49.246;9.106;2023-07-02T06:12:53;18.70;99.90
19586;DHT22;9939;49.246;9.106;2023-07-02T06:15:20;18.70;99.90
19586;DHT22;9939;49.246;9.106;2023-07-02T06:17:46;18.60;99.90
19586;DHT22;9939;49.246;9.106;2023-07-02T06:20:13;18.60;99.90
19586;DHT22;9939;49.246;9.106;2023-07-02T06:22:40;18.60;99.90
19586;DHT22;9939;49.246;9.106;2023-07-02T06:25:08;18.70;99.90
19586;DHT22;9939;49.246;9.106;2023-07-02T06:27:35;18.90;99.90
19586;DHT22;9939;49.246;9.106;2023-07-02T06:30:04;19.10;99.90
19586;DHT22;9939;49.246;9.106;2023-07-02T06:32:32;19.40;99.90
19586;DHT22;9939;49.246;9.106;2023-07-02T06:34:59;19.60;99.90
19586;DHT22;9939;49.246;9.106;2023-07-02T06:37:26;19.50;99.90
19586;DHT22;9939;49.246;9.106;2023-07-02T06:39:53;19.20;99.90
19586;DHT22;9939;49.246;9.106;2023-07-02T06:42:19;19.20;99.90
19586;DHT22;9939;49.246;9.106;2023-07-02T06:44:46;19.20;99.90
19586;DHT22;9939;49.246;9.106;2023-07-02T06:47:13;19.30;99.90
19586;DHT22;9939;49.246;9.106;2023-07-02T06:49:40;19.30;99.90
19586;DHT22;9939;49.246;9.106;2023-07-02T06:52:06;19.50;99.90
19586;DHT22;9939;49.246;9.106;2023-07-02T06:54:33;19.80;99.90
19586;DHT22;9939;49.246;9.106;2023-07-02T06:57:01;19.90;99.90
19586;DHT22;9939;49.246;9.106;2023-07-02T06:59:27;20.10;99.90
19586;DHT22;9939;49.246;9.106;2023-07-02T07:01:54;19.90;99.90
19586;DHT22;9939;49.246;9.106;2023-07-02T07:04:21;19.80;99.90
19586;DHT22;9939;49.246;9.106;2023-07-02T07:06:48;19.70;99.90
19586;DHT22;9939;49.246;9.106;2023-07-02T07:09:15;19.90;99.90
19586;DHT22;9939;49.246;9.106;2023-07-02T07:11:41;19.90;99.90
19586;DHT22;9939;49.246;9.106;2023-07-02T07:14:08;20.00;99.90
19586;DHT22;9939;49.246;9.106;2023-07-02T07:16:35;20.10;99.90
19586;DHT22;9939;49.246;9.106;2023-07-02T07:19:01;20.20;99.90
19586;DHT22;9939;49.246;9.106;2023-07-02T07:21:28;20.30;99.90
19586;DHT22;9939;49.246;9.106;2023-07-02T07:23:55;20.20;99.90
19586;DHT22;9939;49.246;9.106;2023-07-02T07:26:21;19.80;99.90
19586;DHT22;9939;49.246;9.106;2023-07-02T07:28:48;19.90;99.90
19586;DHT22;9939;49.246;9.106;2023-07-02T07:31:15;20.00;99.90
19586;DHT22;9939;49.246;9.106;2023-07-02T07:33:42;20.00;99.90
19586;DHT22;9939;49.246;9.106;2023-07-02T07:36:08;19.80;99.90
19586;DHT22;9939;49.246;9.106;2023-07-02T07:38:35;20.30;99.90
19586;DHT22;9939;49.246;9.106;2023-07-02T07:41:02;20.40;99.90
19586;DHT22;9939;49.246;9.106;2023-07-02T07:43:29;20.70;99.90
19586;DHT22;9939;49.246;9.106;2023-07-02T07:45:55;21.00;99.90
19586;DHT22;9939;49.246;9.106;2023-07-02T07:48:22;20.80;99.90
19586;DHT22;9939;49.246;9.106;2023-07-02T07:50:49;20.90;99.90
19586;DHT22;9939;49.246;9.106;2023-07-02T07:53:16;20.80;99.90
19586;DHT22;9939;49.246;9.106;2023-07-02T07:55:43;20.80;99.90
19586;DHT22;9939;49.246;9.106;2023-07-02T07:58:10;20.60;99.90
19586;DHT22;9939;49.246;9.106;2023-07-02T08:00:36;20.60;99.90
19586;DHT22;9939;49.246;9.106;2023-07-02T08:03:04;20.90;99.90
19586;DHT22;9939;49.246;9.106;2023-07-02T08:05:31;21.10;99.90
19586;DHT22;9939;49.246;9.106;2023-07-02T08:07:57;21.50;99.90
19586;DHT22;9939;49.246;9.106;2023-07-02T08:10:25;21.20;99.90
19586;DHT22;9939;49.246;9.106;2023-07-02T08:12:52;21.30;99.90
19586;DHT22;9939;49.246;9.106;2023-07-02T08:15:19;21.20;99.90
19586;DHT22;9939;49.246;9.106;2023-07-02T08:17:45;21.30;99.90
19586;DHT22;9939;49.246;9.106;2023-07-02T08:20:12;21.10;99.90
19586;DHT22;9939;49.246;9.106;2023-07-02T08:22:39;21.60;99.90
19586;DHT22;9939;49.246;9.106;2023-07-02T08:25:06;21.60;99.90
19586;DHT22;9939;49.246;9.106;2023-07-02T08:27:34;21.50;99.90
19586;DHT22;9939;49.246;9.106;2023-07-02T08:30:01;21.40;99.90
19586;DHT22;9939;49.246;9.106;2023-07-02T08:32:28;21.40;99.90
19586;DHT22;9939;49.246;9.106;2023-07-02T08:34:54;21.80;99.90
19586;DHT22;9939;49.246;9.106;2023-07-02T08:37:22;21.70;99.90
19586;DHT22;9939;49.246;9.106;2023-07-02T08:39:49;21.70;99.90
19586;DHT22;9939;49.246;9.106;2023-07-02T08:42:16;21.70;99.90
19586;DHT22;9939;49.246;9.106;2023-07-02T08:44:45;21.60;99.90
19586;DHT22;9939;49.246;9.106;2023-07-02T08:47:12;21.70;99.90
19586;DHT22;9939;49.246;9.106;2023-07-02T08:49:39;21.70;99.90
19586;DHT22;9939;49.246;9.106;2023-07-02T08:52:06;22.20;99.90
19586;DHT22;9939;49.246;9.106;2023-07-02T08:54:33;22.70;99.90
19586;DHT22;9939;49.246;9.106;2023-07-02T08:57:00;22.90;99.90
19586;DHT22;9939;49.246;9.106;2023-07-02T08:59:31;22.30;99.90
19586;DHT22;9939;49.246;9.106;2023-07-02T09:01:58;22.40;99.90
19586;DHT22;9939;49.246;9.106;2023-07-02T09:04:25;22.70;99.90
19586;DHT22;9939;49.246;9.106;2023-07-02T09:07:05;23.00;99.90
19586;DHT22;9939;49.246;9.106;2023-07-02T09:09:32;22.80;99.90
19586;DHT22;9939;49.246;9.106;2023-07-02T09:11:59;22.30;99.90
19586;DHT22;9939;49.246;9.106;2023-07-02T09:14:29;22.20;99.90
19586;DHT22;9939;49.246;9.106;2023-07-02T09:17:07;22.50;99.90
19586;DHT22;9939;49.246;9.106;2023-07-02T09:19:35;22.60;99.90
19586;DHT22;9939;49.246;9.106;2023-07-02T09:22:02;22.60;99.90
19586;DHT22;9939;49.246;9.106;2023-07-02T09:24:30;22.70;99.90
19586;DHT22;9939;49.246;9.106;2023-07-02T09:27:00;22.70;99.90
19586;DHT22;9939;49.246;9.106;2023-07-02T09:29:28;22.60;99.90
19586;DHT22;9939;49.246;9.106;2023-07-02T09:31:56;22.70;99.90
19586;DHT22;9939;49.246;9.106;2023-07-02T09:34:26;23.10;99.90
19586;DHT22;9939;49.246;9.106;2023-07-02T09:36:53;23.10;99.90
19586;DHT22;9939;49.246;9.106;2023-07-02T09:39:26;22.40;99.90
19586;DHT22;9939;49.246;9.106;2023-07-02T09:41:53;23.30;99.90
19586;DHT22;9939;49.246;9.106;2023-07-02T09:44:21;23.10;99.90
19586;DHT22;9939;49.246;9.106;2023-07-02T09:49:26;22.60;99.90
19586;DHT22;9939;49.246;9.106;2023-07-02T09:51:53;23.80;99.90
19586;DHT22;9939;49.246;9.106;2023-07-02T09:54:20;24.20;99.90
19586;DHT22;9939;49.246;9.106;2023-07-02T09:56:47;23.60;99.90
19586;DHT22;9939;49.246;9.106;2023-07-02T09:59:14;22.90;99.90
19586;DHT22;9939;49.246;9.106;2023-07-02T10:01:41;22.40;99.90
19586;DHT22;9939;49.246;9.106;2023-07-02T10:04:11;22.70;99.90
19586;DHT22;9939;49.246;9.106;2023-07-02T10:06:48;23.60;99.90
19586;DHT22;9939;49.246;9.106;2023-07-02T10:09:17;24.40;99.90
19586;DHT22;9939;49.246;9.106;2023-07-02T10:11:44;23.60;99.90
19586;DHT22;9939;49.246;9.106;2023-07-02T10:14:11;23.60;99.90
19586;DHT22;9939;49.246;9.106;2023-07-02T10:16:54;24.20;99.90
19586;DHT22;9939;49.246;9.106;2023-07-02T10:19:21;23.90;99.90
19586;DHT22;9939;49.246;9.106;2023-07-02T10:22:01;23.30;99.90
19586;DHT22;9939;49.246;9.106;2023-07-02T10:24:29;22.80;99.90
19586;DHT22;9939;49.246;9.106;2023-07-02T10:26:56;23.60;99.90
19586;DHT22;9939;49.246;9.106;2023-07-02T10:29:24;24.00;99.90
19586;DHT22;9939;49.246;9.106;2023-07-02T10:31:51;24.30;99.90
19586;DHT22;9939;49.246;9.106;2023-07-02T10:34:28;24.30;99.90
19586;DHT22;9939;49.246;9.106;2023-07-02T10:36:55;23.80;99.90
19586;DHT22;9939;49.246;9.106;2023-07-02T10:39:22;23.80;99.90
19586;DHT22;9939;49.246;9.106;2023-07-02T10:41:49;23.40;99.90
19586;DHT22;9939;49.246;9.106;2023-07-02T10:44:16;23.50;99.90
19586;DHT22;9939;49.246;9.106;2023-07-02T10:49:12;23.80;99.90
19586;DHT22;9939;49.246;9.106;2023-07-02T10:51:39;23.20;99.90
19586;DHT22;9939;49.246;9.106;2023-07-02T10:54:05;23.70;99.90
19586;DHT22;9939;49.246;9.106;2023-07-02T10:56:32;24.40;99.90
19586;DHT22;9939;49.246;9.106;2023-07-02T10:58:59;24.70;99.90
19586;DHT22;9939;49.246;9.106;2023-07-02T11:01:29;24.90;99.90
19586;DHT22;9939;49.246;9.106;2023-07-02T11:03:57;24.80;99.90
19586;DHT22;9939;49.246;9.106;2023-07-02T11:06:26;24.80;99.90
19586;DHT22;9939;49.246;9.106;2023-07-02T11:08:53;25.80;99.90
19586;DHT22;9939;49.246;9.106;2023-07-02T11:11:22;27.20;99.90
19586;DHT22;9939;49.246;9.106;2023-07-02T11:13:51;28.10;99.50
19586;DHT22;9939;49.246;9.106;2023-07-02T11:16:19;28.20;98.70
19586;DHT22;9939;49.246;9.106;2023-07-02T11:18:47;27.20;99.00
19586;DHT22;9939;49.246;9.106;2023-07-02T11:21:13;28.20;98.20
19586;DHT22;9939;49.246;9.106;2023-07-02T11:23:40;28.40;96.70
19586;DHT22;9939;49.246;9.106;2023-07-02T11:26:07;28.40;96.30
19586;DHT22;9939;49.246;9.106;2023-07-02T11:28:34;28.10;95.70
19586;DHT22;9939;49.246;9.106;2023-07-02T11:31:04;27.40;97.30
19586;DHT22;9939;49.246;9.106;2023-07-02T11:33:35;28.00;98.30
19586;DHT22;9939;49.246;9.106;2023-07-02T11:36:05;27.40;98.30
19586;DHT22;9939;49.246;9.106;2023-07-02T11:38:33;26.60;98.50
19586;DHT22;9939;49.246;9.106;2023-07-02T11:41:00;25.90;99.80
19586;DHT22;9939;49.246;9.106;2023-07-02T11:43:28;26.10;99.70
19586;DHT22;9939;49.246;9.106;2023-07-02T11:45:55;26.40;99.90
19586;DHT22;9939;49.246;9.106;2023-07-02T11:48:22;26.70;98.20
19586;DHT22;9939;49.246;9.106;2023-07-02T11:50:49;26.30;98.40
19586;DHT22;9939;49.246;9.106;2023-07-02T11:53:15;26.60;98.10
19586;DHT22;9939;49.246;9.106;2023-07-02T11:55:42;26.30;97.60
19586;DHT22;9939;49.246;9.106;2023-07-02T11:58:09;26.20;97.90
19586;DHT22;9939;49.246;9.106;2023-07-02T12:00:36;27.80;96.50
19586;DHT22;9939;49.246;9.106;2023-07-02T12:03:02;29.40;94.70
19586;DHT22;9939;49.246;9.106;2023-07-02T12:05:29;29.40;93.70
19586;DHT22;9939;49.246;9.106;2023-07-02T12:07:56;30.60;92.90
19586;DHT22;9939;49.246;9.106;2023-07-02T12:10:23;30.20;92.50
19586;DHT22;9939;49.246;9.106;2023-07-02T12:12:49;29.60;93.10
19586;DHT22;9939;49.246;9.106;2023-07-02T12:15:16;30.90;92.10
19586;DHT22;9939;49.246;9.106;2023-07-02T12:17:43;32.00;90.90
19586;DHT22;9939;49.246;9.106;2023-07-02T12:20:10;32.50;89.90
19586;DHT22;9939;49.246;9.106;2023-07-02T12:22:37;32.10;88.60
19586;DHT22;9939;49.246;9.106;2023-07-02T12:25:04;31.80;87.60
19586;DHT22;9939;49.246;9.106;2023-07-02T12:27:31;33.40;86.50
19586;DHT22;9939;49.246;9.106;2023-07-02T12:29:58;32.10;86.50
19586;DHT22;9939;49.246;9.106;2023-07-02T12:32:25;29.60;90.30
19586;DHT22;9939;49.246;9.106;2023-07-02T12:34:51;28.20;91.90
19586;DHT22;9939;49.246;9.106;2023-07-02T12:37:18;28.50;92.70
19586;DHT22;9939;49.246;9.106;2023-07-02T12:39:47;30.00;91.70
19586;DHT22;9939;49.246;9.106;2023-07-02T12:42:13;32.90;88.20
19586;DHT22;9939;49.246;9.106;2023-07-02T12:44:40;31.80;87.30
19586;DHT22;9939;49.246;9.106;2023-07-02T12:47:07;30.50;88.50
19586;DHT22;9939;49.246;9.106;2023-07-02T12:49:35;28.90;90.10
19586;DHT22;9939;49.246;9.106;2023-07-02T12:52:02;28.00;91.10
19586;DHT22;9939;49.246;9.106;2023-07-02T12:54:29;27.50;92.10
19586;DHT22;9939;49.246;9.106;2023-07-02T12:56:56;27.30;92.00
19586;DHT22;9939;49.246;9.106;2023-07-02T12:59:22;27.70;92.20
19586;DHT22;9939;49.246;9.106;2023-07-02T13:01:49;27.80;91.60
19586;DHT22;9939;49.246;9.106;2023-07-02T13:04:16;27.20;91.90
19586;DHT22;9939;49.246;9.106;2023-07-02T13:06:44;27.10;92.10
19586;DHT22;9939;49.246;9.106;2023-07-02T13:09:12;26.70;93.00
19586;DHT22;9939;49.246;9.106;2023-07-02T13:11:39;26.40;93.70
19586;DHT22;9939;49.246;9.106;2023-07-02T13:14:06;26.10;94.00
19586;DHT22;9939;49.246;9.106;2023-07-02T13:16:32;26.60;94.40
19586;DHT22;9939;49.246;9.106;2023-07-02T13:18:59;29.10;92.00
19586;DHT22;9939;49.246;9.106;2023-07-02T13:21:28;28.90;91.30
19586;DHT22;9939;49.246;9.106;2023-07-02T13:23:55;28.90;91.30
19586;DHT22;9939;49.246;9.106;2023-07-02T13:26:22;31.50;89.20
19586;DHT22;9939;49.246;9.106;2023-07-02T13:28:48;32.20;84.60
19586;DHT22;9939;49.246;9.106;2023-07-02T13:31:15;32.00;85.70
19586;DHT22;9939;49.246;9.106;2023-07-02T13:33:42;29.80;87.40
19586;DHT22;9939;49.246;9.106;2023-07-02T13:36:09;28.20;90.60
19586;DHT22;9939;49.246;9.106;2023-07-02T13:38:36;28.30;91.30
19586;DHT22;9939;49.246;9.106;2023-07-02T13:41:03;29.20;91.30
19586;DHT22;9939;49.246;9.106;2023-07-02T13:43:29;28.60;90.50
19586;DHT22;9939;49.246;9.106;2023-07-02T13:45:56;27.50;91.50
19586;DHT22;9939;49.246;9.106;2023-07-02T13:48:23;29.90;90.10
19586;DHT22;9939;49.246;9.106;2023-07-02T13:50:52;30.60;87.40
19586;DHT22;9939;49.246;9.106;2023-07-02T13:53:20;29.40;88.00
19586;DHT22;9939;49.246;9.106;2023-07-02T13:55:47;27.80;90.80
19586;DHT22;9939;49.246;9.106;2023-07-02T13:58:14;28.70;90.80
19586;DHT22;9939;49.246;9.106;2023-07-02T14:00:54;30.80;87.10
19586;DHT22;9939;49.246;9.106;2023-07-02T14:03:21;33.10;83.40
19586;DHT22;9939;49.246;9.106;2023-07-02T14:05:48;33.00;84.30
19586;DHT22;9939;49.246;9.106;2023-07-02T14:08:17;31.50;84.70
19586;DHT22;9939;49.246;9.106;2023-07-02T14:10:43;30.90;86.30
19586;DHT22;9939;49.246;9.106;2023-07-02T14:13:10;33.20;83.80
19586;DHT22;9939;49.246;9.106;2023-07-02T14:15:37;33.20;81.90
19586;DHT22;9939;49.246;9.106;2023-07-02T14:18:04;32.20;82.90
19586;DHT22;9939;49.246;9.106;2023-07-02T14:20:31;31.70;84.80
19586;DHT22;9939;49.246;9.106;2023-07-02T14:22:57;30.50;86.10
19586;DHT22;9939;49.246;9.106;2023-07-02T14:25:24;33.00;82.50
19586;DHT22;9939;49.246;9.106;2023-07-02T14:28:08;34.60;79.50
19586;DHT22;9939;49.246;9.106;2023-07-02T14:30:35;34.20;79.00
19586;DHT22;9939;49.246;9.106;2023-07-02T14:33:03;35.30;76.40
19586;DHT22;9939;49.246;9.106;2023-07-02T14:35:30;36.30;75.20
19586;DHT22;9939;49.246;9.106;2023-07-02T14:37:57;35.20;75.40
19586;DHT22;9939;49.246;9.106;2023-07-02T14:40:24;36.20;73.20
19586;DHT22;9939;49.246;9.106;2023-07-02T14:42:51;35.60;73.10
19586;DHT22;9939;49.246;9.106;2023-07-02T14:45:17;33.00;77.90
19586;DHT22;9939;49.246;9.106;2023-07-02T14:47:44;31.40;80.00
19586;DHT22;9939;49.246;9.106;2023-07-02T14:50:11;29.60;84.00
19586;DHT22;9939;49.246;9.106;2023-07-02T14:52:38;29.20;85.20
19586;DHT22;9939;49.246;9.106;2023-07-02T14:55:05;30.30;84.20
19586;DHT22;9939;49.246;9.106;2023-07-02T14:57:31;29.40;85.20
19586;DHT22;9939;49.246;9.106;2023-07-02T14:59:58;30.10;85.40
19586;DHT22;9939;49.246;9.106;2023-07-02T15:02:25;32.90;81.50
19586;DHT22;9939;49.246;9.106;2023-07-02T15:04:52;34.80;77.50
19586;DHT22;9939;49.246;9.106;2023-07-02T15:07:19;35.20;74.30
19586;DHT22;9939;49.246;9.106;2023-07-02T15:09:47;34.60;75.40
19586;DHT22;9939;49.246;9.106;2023-07-02T15:12:15;32.80;76.20
19586;DHT22;9939;49.246;9.106;2023-07-02T15:14:43;31.70;79.50
19586;DHT22;9939;49.246;9.106;2023-07-02T15:17:10;33.10;77.10
19586;DHT22;9939;49.246;9.106;2023-07-02T15:19:36;35.20;73.60
19586;DHT22;9939;49.246;9.106;2023-07-02T15:22:03;36.00;72.30
19586;DHT22;9939;49.246;9.106;2023-07-02T15:24:31;35.30;73.20
19586;DHT22;9939;49.246;9.106;2023-07-02T15:27:00;36.00;72.30
19586;DHT22;9939;49.246;9.106;2023-07-02T15:29:28;35.90;71.20
19586;DHT22;9939;49.246;9.106;2023-07-02T15:31:54;34.90;72.70
19586;DHT22;9939;49.246;9.106;2023-07-02T15:34:21;34.60;73.20
19586;DHT22;9939;49.246;9.106;2023-07-02T15:36:48;35.10;71.90
19586;DHT22;9939;49.246;9.106;2023-07-02T15:39:16;36.60;70.90
19586;DHT22;9939;49.246;9.106;2023-07-02T15:41:48;37.10;68.90
19586;DHT22;9939;49.246;9.106;2023-07-02T15:44:15;35.90;70.80
19586;DHT22;9939;49.246;9.106;2023-07-02T15:46:42;34.80;72.00
19586;DHT22;9939;49.246;9.106;2023-07-02T15:49:10;36.10;71.10
19586;DHT22;9939;49.246;9.106;2023-07-02T15:51:38;36.40;69.80